sensor_id;sensor_type;location;lat;lon;timestamp;temperature;humidity
9881;DHT22;4979;51.014;6.678;2023-05-31T00:01:46;14.70;99.90
9881;DHT22;4979;51.014;6.678;2023-05-31T00:06:38;14.70;99.90
9881;DHT22;4979;51.014;6.678;2023-05-31T00:09:03;14.60;99.90
9881;DHT22;4979;51.014;6.678;2023-05-31T00:11:29;14.60;99.90
9881;DHT22;4979;51.014;6.678;2023-05-31T00:13:55;14.60;99.90
9881;DHT22;4979;51.014;6.678;2023-05-31T00:16:20;14.40;99.90
9881;DHT22;4979;51.014;6.678;2023-05-31T00:18:46;14.60;99.90
9881;DHT22;4979;51.014;6.678;2023-05-31T00:21:12;14.60;99.90
9881;DHT22;4979;51.014;6.678;2023-05-31T00:26:03;14.50;99.90
9881;DHT22;4979;51.014;6.678;2023-05-31T00:28:29;14.50;99.90
9881;DHT22;4979;51.014;6.678;2023-05-31T00:30:54;14.50;99.90
9881;DHT22;4979;51.014;6.678;2023-05-31T00:33:20;14.60;99.90
9881;DHT22;4979;51.014;6.678;2023-05-31T00:35:45;14.30;99.90
9881;DHT22;4979;51.014;6.678;2023-05-31T00:38:11;14.60;99.90
9881;DHT22;4979;51.014;6.678;2023-05-31T00:40:38;14.50;99.90
9881;DHT22;4979;51.014;6.678;2023-05-31T00:43:04;14.40;99.90
9881;DHT22;4979;51.014;6.678;2023-05-31T00:45:30;14.30;99.90
9881;DHT22;4979;51.014;6.678;2023-05-31T00:47:59;14.40;99.90
9881;DHT22;4979;51.014;6.678;2023-05-31T00:50:25;14.20;99.90
9881;DHT22;4979;51.014;6.678;2023-05-31T00:55:19;14.30;99.90
9881;DHT22;4979;51.014;6.678;2023-05-31T00:57:44;14.30;99.90
9881;DHT22;4979;51.014;6.678;2023-05-31T01:00:10;14.20;99.90
9881;DHT22;4979;51.014;6.678;2023-05-31T01:02:38;14.20;99.90
9881;DHT22;4979;51.014;6.678;2023-05-31T01:05:07;14.80;99.90
9881;DHT22;4979;51.014;6.678;2023-05-31T01:10:05;14.20;99.90
9881;DHT22;4979;51.014;6.678;2023-05-31T01:15:16;14.00;99.90
9881;DHT22;4979;51.014;6.678;2023-05-31T01:18:26;14.10;99.90
9881;DHT22;4979;51.014;6.678;2023-05-31T01:20:58;14.10;99.90
9881;DHT22;4979;51.014;6.678;2023-05-31T01:29:09;13.90;99.90
9881;DHT22;4979;51.014;6.678;2023-05-31T01:31:37;14.00;99.90
9881;DHT22;4979;51.014;6.678;2023-05-31T01:34:05;13.90;99.90
9881;DHT22;4979;51.014;6.678;2023-05-31T01:36:30;13.80;99.90
9881;DHT22;4979;51.014;6.678;2023-05-31T01:38:56;14.30;99.90
9881;DHT22;4979;51.014;6.678;2023-05-31T01:41:24;13.70;99.90
9881;DHT22;4979;51.014;6.678;2023-05-31T01:43:52;13.90;99.90
9881;DHT22;4979;51.014;6.678;2023-05-31T01:46:18;13.60;99.90
9881;DHT22;4979;51.014;6.678;2023-05-31T01:48:45;13.50;99.90
9881;DHT22;4979;51.014;6.678;2023-05-31T01:51:12;13.80;99.90
9881;DHT22;4979;51.014;6.678;2023-05-31T01:53:40;13.80;99.90
9881;DHT22;4979;51.014;6.678;2023-05-31T01:56:07;13.50;99.90
9881;DHT22;4979;51.014;6.678;2023-05-31T01:58:35;13.60;99.90
9881;DHT22;4979;51.014;6.678;2023-05-31T02:01:01;13.80;99.90
9881;DHT22;4979;51.014;6.678;2023-05-31T02:03:27;13.80;99.90
9881;DHT22;4979;51.014;6.678;2023-05-31T02:05:57;13.80;99.90
9881;DHT22;4979;51.014;6.678;2023-05-31T02:08:24;14.10;99.90
9881;DHT22;4979;51.014;6.678;2023-05-31T02:13:16;13.50;99.90
9881;DHT22;4979;51.014;6.678;2023-05-31T02:15:42;13.80;99.90
9881;DHT22;4979;51.014;6.678;2023-05-31T02:18:07;13.90;99.90
9881;DHT22;4979;51.014;6.678;2023-05-31T02:20:34;13.80;99.90
9881;DHT22;4979;51.014;6.678;2023-05-31T02:22:59;13.40;99.90
9881;DHT22;4979;51.014;6.678;2023-05-31T02:25:25;13.70;99.90
9881;DHT22;4979;51.014;6.678;2023-05-31T02:30:17;13.70;99.90
9881;DHT22;4979;51.014;6.678;2023-05-31T02:32:42;13.60;99.90
9881;DHT22;4979;51.014;6.678;2023-05-31T02:35:09;13.60;99.90
9881;DHT22;4979;51.014;6.678;2023-05-31T02:37:37;13.60;99.90
9881;DHT22;4979;51.014;6.678;2023-05-31T02:40:03;13.60;99.90
9881;DHT22;4979;51.014;6.678;2023-05-31T02:42:40;13.60;99.90
9881;DHT22;4979;51.014;6.678;2023-05-31T02:45:07;13.70;99.90
9881;DHT22;4979;51.014;6.678;2023-05-31T02:47:35;13.90;99.90
9881;DHT22;4979;51.014;6.678;2023-05-31T02:50:01;13.70;99.90
9881;DHT22;4979;51.014;6.678;2023-05-31T02:52:27;13.60;99.90
9881;DHT22;4979;51.014;6.678;2023-05-31T02:54:53;13.50;99.90
9881;DHT22;4979;51.014;6.678;2023-05-31T02:57:18;13.50;99.90
9881;DHT22;4979;51.014;6.678;2023-05-31T02:59:45;13.60;99.90
9881;DHT22;4979;51.014;6.678;2023-05-31T03:02:11;13.90;99.90
9881;DHT22;4979;51.014;6.678;2023-05-31T03:04:37;13.60;99.90
9881;DHT22;4979;51.014;6.678;2023-05-31T03:07:02;13.50;99.90
9881;DHT22;4979;51.014;6.678;2023-05-31T03:09:28;13.50;99.90
9881;DHT22;4979;51.014;6.678;2023-05-31T03:11:54;13.40;99.90
9881;DHT22;4979;51.014;6.678;2023-05-31T03:14:19;13.30;99.90
9881;DHT22;4979;51.014;6.678;2023-05-31T03:16:45;13.60;99.90
9881;DHT22;4979;51.014;6.678;2023-05-31T03:19:11;13.40;99.90
9881;DHT22;4979;51.014;6.678;2023-05-31T03:21:38;13.10;99.90
9881;DHT22;4979;51.014;6.678;2023-05-31T03:24:04;13.40;99.90
9881;DHT22;4979;51.014;6.678;2023-05-31T03:26:30;13.20;99.90
9881;DHT22;4979;51.014;6.678;2023-05-31T03:28:56;13.30;99.90
9881;DHT22;4979;51.014;6.678;2023-05-31T03:31:21;13.30;99.90
9881;DHT22;4979;51.014;6.678;2023-05-31T03:33:47;13.20;99.90
9881;DHT22;4979;51.014;6.678;2023-05-31T03:41:04;13.10;99.90
9881;DHT22;4979;51.014;6.678;2023-05-31T03:43:30;12.90;99.90
9881;DHT22;4979;51.014;6.678;2023-05-31T03:45:56;13.20;99.90
9881;DHT22;4979;51.014;6.678;2023-05-31T03:48:29;13.10;99.90
9881;DHT22;4979;51.014;6.678;2023-05-31T03:50:56;13.30;99.90
9881;DHT22;4979;51.014;6.678;2023-05-31T03:53:22;13.00;99.90
9881;DHT22;4979;51.014;6.678;2023-05-31T03:55:47;13.20;99.90
9881;DHT22;4979;51.014;6.678;2023-05-31T03:58:13;13.20;99.90
9881;DHT22;4979;51.014;6.678;2023-05-31T04:00:39;13.30;99.90
9881;DHT22;4979;51.014;6.678;2023-05-31T04:03:05;13.00;99.90
9881;DHT22;4979;51.014;6.678;2023-05-31T04:05:31;13.20;99.90
9881;DHT22;4979;51.014;6.678;2023-05-31T04:07:56;13.40;99.90
9881;DHT22;4979;51.014;6.678;2023-05-31T04:10:22;13.70;99.90
9881;DHT22;4979;51.014;6.678;2023-05-31T04:12:48;13.10;99.90
9881;DHT22;4979;51.014;6.678;2023-05-31T04:15:13;13.40;99.90
9881;DHT22;4979;51.014;6.678;2023-05-31T04:17:39;13.40;99.90
9881;DHT22;4979;51.014;6.678;2023-05-31T04:22:34;13.30;99.90
9881;DHT22;4979;51.014;6.678;2023-05-31T04:25:03;13.70;99.90
9881;DHT22;4979;51.014;6.678;2023-05-31T04:27:29;13.70;99.90
9881;DHT22;4979;51.014;6.678;2023-05-31T04:29:55;13.80;99.90
9881;DHT22;4979;51.014;6.678;2023-05-31T04:32:24;13.90;99.90
9881;DHT22;4979;51.014;6.678;2023-05-31T04:34:49;14.10;99.90
9881;DHT22;4979;51.014;6.678;2023-05-31T04:39:43;14.40;99.90
9881;DHT22;4979;51.014;6.678;2023-05-31T04:42:09;14.70;99.90
9881;DHT22;4979;51.014;6.678;2023-05-31T04:44:37;14.40;99.90
9881;DHT22;4979;51.014;6.678;2023-05-31T04:49:30;15.10;99.90
9881;DHT22;4979;51.014;6.678;2023-05-31T04:51:55;15.10;99.90
9881;DHT22;4979;51.014;6.678;2023-05-31T04:54:22;15.20;99.90
9881;DHT22;4979;51.014;6.678;2023-05-31T04:56:47;15.10;99.90
9881;DHT22;4979;51.014;6.678;2023-05-31T04:59:13;15.30;99.90
9881;DHT22;4979;51.014;6.678;2023-05-31T05:04:05;15.10;99.90
9881;DHT22;4979;51.014;6.678;2023-05-31T05:06:31;15.20;99.90
9881;DHT22;4979;51.014;6.678;2023-05-31T05:08:58;15.20;99.90
9881;DHT22;4979;51.014;6.678;2023-05-31T05:11:23;15.30;99.90
9881;DHT22;4979;51.014;6.678;2023-05-31T05:13:50;15.20;99.90
9881;DHT22;4979;51.014;6.678;2023-05-31T05:16:15;15.70;99.90
9881;DHT22;4979;51.014;6.678;2023-05-31T05:23:33;15.50;99.90
9881;DHT22;4979;51.014;6.678;2023-05-31T05:26:00;16.00;99.90
9881;DHT22;4979;51.014;6.678;2023-05-31T05:28:27;15.60;99.90
9881;DHT22;4979;51.014;6.678;2023-05-31T05:30:53;16.00;99.90
9881;DHT22;4979;51.014;6.678;2023-05-31T05:33:19;16.10;99.90
9881;DHT22;4979;51.014;6.678;2023-05-31T05:35:44;16.00;99.90
9881;DHT22;4979;51.014;6.678;2023-05-31T05:38:10;16.20;99.90
9881;DHT22;4979;51.014;6.678;2023-05-31T05:40:36;16.10;99.90
9881;DHT22;4979;51.014;6.678;2023-05-31T05:43:01;16.40;99.90
9881;DHT22;4979;51.014;6.678;2023-05-31T05:45:27;16.50;99.90
9881;DHT22;4979;51.014;6.678;2023-05-31T05:50:21;16.40;99.90
9881;DHT22;4979;51.014;6.678;2023-05-31T05:52:46;16.30;99.90
9881;DHT22;4979;51.014;6.678;2023-05-31T05:55:12;16.40;99.90
9881;DHT22;4979;51.014;6.678;2023-05-31T05:57:37;16.20;99.90
9881;DHT22;4979;51.014;6.678;2023-05-31T06:00:03;16.40;99.90
9881;DHT22;4979;51.014;6.678;2023-05-31T06:02:37;16.40;99.90
9881;DHT22;4979;51.014;6.678;2023-05-31T06:05:03;16.30;99.90
9881;DHT22;4979;51.014;6.678;2023-05-31T06:12:21;16.60;99.90
9881;DHT22;4979;51.014;6.678;2023-05-31T06:14:47;16.60;99.90
9881;DHT22;4979;51.014;6.678;2023-05-31T06:19:39;17.10;99.90
9881;DHT22;4979;51.014;6.678;2023-05-31T06:22:06;17.00;99.90
9881;DHT22;4979;51.014;6.678;2023-05-31T06:24:31;16.90;99.90
9881;DHT22;4979;51.014;6.678;2023-05-31T06:26:57;17.30;99.90
9881;DHT22;4979;51.014;6.678;2023-05-31T06:29:22;17.00;99.90
9881;DHT22;4979;51.014;6.678;2023-05-31T06:34:14;16.70;99.90
9881;DHT22;4979;51.014;6.678;2023-05-31T06:36:41;17.20;99.90
9881;DHT22;4979;51.014;6.678;2023-05-31T06:39:07;17.20;99.90
9881;DHT22;4979;51.014;6.678;2023-05-31T06:44:00;17.40;99.90
9881;DHT22;4979;51.014;6.678;2023-05-31T06:46:26;17.60;99.90
9881;DHT22;4979;51.014;6.678;2023-05-31T06:48:52;17.60;99.90
9881;DHT22;4979;51.014;6.678;2023-05-31T06:51:17;17.60;99.90
9881;DHT22;4979;51.014;6.678;2023-05-31T06:53:44;17.90;99.90
9881;DHT22;4979;51.014;6.678;2023-05-31T06:56:10;18.00;99.90
9881;DHT22;4979;51.014;6.678;2023-05-31T06:58:36;18.20;99.90
9881;DHT22;4979;51.014;6.678;2023-05-31T07:01:01;18.40;99.90
9881;DHT22;4979;51.014;6.678;2023-05-31T07:03:27;18.40;99.90
9881;DHT22;4979;51.014;6.678;2023-05-31T07:05:52;18.30;99.90
9881;DHT22;4979;51.014;6.678;2023-05-31T07:08:18;18.30;99.90
9881;DHT22;4979;51.014;6.678;2023-05-31T07:10:44;18.70;99.90
9881;DHT22;4979;51.014;6.678;2023-05-31T07:13:10;18.80;99.90
9881;DHT22;4979;51.014;6.678;2023-05-31T07:15:37;18.80;99.90
9881;DHT22;4979;51.014;6.678;2023-05-31T07:20:28;18.40;99.90
9881;DHT22;4979;51.014;6.678;2023-05-31T07:22:56;18.90;99.90
9881;DHT22;4979;51.014;6.678;2023-05-31T07:25:22;19.00;99.90
9881;DHT22;4979;51.014;6.678;2023-05-31T07:27:47;19.00;99.90
9881;DHT22;4979;51.014;6.678;2023-05-31T07:30:13;19.10;99.90
9881;DHT22;4979;51.014;6.678;2023-05-31T07:32:38;19.20;99.90
9881;DHT22;4979;51.014;6.678;2023-05-31T07:35:04;19.20;99.90
9881;DHT22;4979;51.014;6.678;2023-05-31T07:37:31;19.30;99.90
9881;DHT22;4979;51.014;6.678;2023-05-31T07:39:57;19.10;99.90
9881;DHT22;4979;51.014;6.678;2023-05-31T07:42:23;19.50;99.90
9881;DHT22;4979;51.014;6.678;2023-05-31T07:44:48;19.80;99.90
9881;DHT22;4979;51.014;6.678;2023-05-31T07:47:15;19.60;99.90
9881;DHT22;4979;51.014;6.678;2023-05-31T07:52:07;19.90;99.90
9881;DHT22;4979;51.014;6.678;2023-05-31T07:54:33;19.70;99.90
9881;DHT22;4979;51.014;6.678;2023-05-31T07:59:25;20.10;99.90
9881;DHT22;4979;51.014;6.678;2023-05-31T08:01:51;19.90;99.90
9881;DHT22;4979;51.014;6.678;2023-05-31T08:04:16;20.20;99.90
9881;DHT22;4979;51.014;6.678;2023-05-31T08:06:42;20.50;99.90
9881;DHT22;4979;51.014;6.678;2023-05-31T08:09:08;20.60;99.90
9881;DHT22;4979;51.014;6.678;2023-05-31T08:11:34;20.60;99.90
9881;DHT22;4979;51.014;6.678;2023-05-31T08:14:04;20.80;99.90
9881;DHT22;4979;51.014;6.678;2023-05-31T08:16:32;20.90;99.90
9881;DHT22;4979;51.014;6.678;2023-05-31T08:18:58;20.60;99.90
9881;DHT22;4979;51.014;6.678;2023-05-31T08:21:24;20.30;99.90
9881;DHT22;4979;51.014;6.678;2023-05-31T08:23:49;20.90;99.90
9881;DHT22;4979;51.014;6.678;2023-05-31T08:26:15;20.80;99.90
9881;DHT22;4979;51.014;6.678;2023-05-31T08:28:41;21.30;99.90
9881;DHT22;4979;51.014;6.678;2023-05-31T08:33:32;21.30;99.90
9881;DHT22;4979;51.014;6.678;2023-05-31T08:35:58;21.20;99.90
9881;DHT22;4979;51.014;6.678;2023-05-31T08:38:28;21.20;99.90
9881;DHT22;4979;51.014;6.678;2023-05-31T08:40:59;21.70;99.90
9881;DHT22;4979;51.014;6.678;2023-05-31T08:43:26;21.80;99.90
9881;DHT22;4979;51.014;6.678;2023-05-31T08:48:28;21.90;99.90
9881;DHT22;4979;51.014;6.678;2023-05-31T08:50:56;22.00;99.90
9881;DHT22;4979;51.014;6.678;2023-05-31T08:53:25;22.20;99.90
9881;DHT22;4979;51.014;6.678;2023-05-31T08:55:52;22.30;99.90
9881;DHT22;4979;51.014;6.678;2023-05-31T08:58:19;22.50;99.90
9881;DHT22;4979;51.014;6.678;2023-05-31T09:00:45;22.70;99.90
9881;DHT22;4979;51.014;6.678;2023-05-31T09:03:12;22.30;99.90
9881;DHT22;4979;51.014;6.678;2023-05-31T09:05:38;22.90;99.90
9881;DHT22;4979;51.014;6.678;2023-05-31T09:08:03;22.80;99.90
9881;DHT22;4979;51.014;6.678;2023-05-31T09:10:30;23.20;99.90
9881;DHT22;4979;51.014;6.678;2023-05-31T09:12:56;22.80;99.40
9881;DHT22;4979;51.014;6.678;2023-05-31T09:15:23;22.90;98.40
9881;DHT22;4979;51.014;6.678;2023-05-31T09:17:50;23.00;99.40
9881;DHT22;4979;51.014;6.678;2023-05-31T09:20:15;23.00;98.80
9881;DHT22;4979;51.014;6.678;2023-05-31T09:22:42;23.10;99.90
9881;DHT22;4979;51.014;6.678;2023-05-31T09:25:07;23.20;99.70
9881;DHT22;4979;51.014;6.678;2023-05-31T09:27:38;23.40;99.20
9881;DHT22;4979;51.014;6.678;2023-05-31T09:30:13;23.30;96.60
9881;DHT22;4979;51.014;6.678;2023-05-31T09:32:39;23.30;94.60
9881;DHT22;4979;51.014;6.678;2023-05-31T09:35:16;23.10;95.50
9881;DHT22;4979;51.014;6.678;2023-05-31T09:37:47;23.50;95.10
9881;DHT22;4979;51.014;6.678;2023-05-31T09:40:14;23.50;93.50
9881;DHT22;4979;51.014;6.678;2023-05-31T09:42:49;23.70;92.50
9881;DHT22;4979;51.014;6.678;2023-05-31T09:45:16;23.40;92.20
9881;DHT22;4979;51.014;6.678;2023-05-31T09:47:42;23.80;91.50
9881;DHT22;4979;51.014;6.678;2023-05-31T09:50:21;23.50;90.70
9881;DHT22;4979;51.014;6.678;2023-05-31T09:52:49;23.70;91.00
9881;DHT22;4979;51.014;6.678;2023-05-31T09:55:17;24.00;91.20
9881;DHT22;4979;51.014;6.678;2023-05-31T09:57:43;24.00;89.50
9881;DHT22;4979;51.014;6.678;2023-05-31T10:00:16;23.90;89.60
9881;DHT22;4979;51.014;6.678;2023-05-31T10:02:51;24.20;87.50
9881;DHT22;4979;51.014;6.678;2023-05-31T10:05:17;24.50;87.10
9881;DHT22;4979;51.014;6.678;2023-05-31T10:07:46;24.40;85.60
9881;DHT22;4979;51.014;6.678;2023-05-31T10:10:11;24.60;83.00
9881;DHT22;4979;51.014;6.678;2023-05-31T10:13:00;24.50;81.10
9881;DHT22;4979;51.014;6.678;2023-05-31T10:15:27;24.80;83.00
9881;DHT22;4979;51.014;6.678;2023-05-31T10:18:10;24.80;82.00
9881;DHT22;4979;51.014;6.678;2023-05-31T10:20:56;24.60;80.10
9881;DHT22;4979;51.014;6.678;2023-05-31T10:23:24;24.70;80.70
9881;DHT22;4979;51.014;6.678;2023-05-31T10:26:13;24.70;81.70
9881;DHT22;4979;51.014;6.678;2023-05-31T10:29:16;24.90;82.00
9881;DHT22;4979;51.014;6.678;2023-05-31T10:32:06;25.20;81.10
9881;DHT22;4979;51.014;6.678;2023-05-31T10:34:34;24.70;77.70
9881;DHT22;4979;51.014;6.678;2023-05-31T10:36:59;25.20;78.60
9881;DHT22;4979;51.014;6.678;2023-05-31T10:42:22;25.40;75.80
9881;DHT22;4979;51.014;6.678;2023-05-31T10:45:01;25.40;76.80
9881;DHT22;4979;51.014;6.678;2023-05-31T10:47:37;25.50;77.70
9881;DHT22;4979;51.014;6.678;2023-05-31T10:50:05;25.70;77.60
9881;DHT22;4979;51.014;6.678;2023-05-31T10:52:31;25.30;77.60
9881;DHT22;4979;51.014;6.678;2023-05-31T10:55:19;25.70;75.30
9881;DHT22;4979;51.014;6.678;2023-05-31T10:57:55;25.50;75.50
9881;DHT22;4979;51.014;6.678;2023-05-31T11:00:22;25.60;74.90
9881;DHT22;4979;51.014;6.678;2023-05-31T11:02:52;25.50;76.20
9881;DHT22;4979;51.014;6.678;2023-05-31T11:07:49;25.70;74.60
9881;DHT22;4979;51.014;6.678;2023-05-31T11:13:03;25.80;75.80
9881;DHT22;4979;51.014;6.678;2023-05-31T11:15:39;26.00;75.40
9881;DHT22;4979;51.014;6.678;2023-05-31T11:18:08;26.00;74.40
9881;DHT22;4979;51.014;6.678;2023-05-31T11:20:35;26.10;74.80
9881;DHT22;4979;51.014;6.678;2023-05-31T11:23:23;26.10;73.70
9881;DHT22;4979;51.014;6.678;2023-05-31T11:26:16;26.30;76.10
9881;DHT22;4979;51.014;6.678;2023-05-31T11:28:58;26.10;74.70
9881;DHT22;4979;51.014;6.678;2023-05-31T11:34:22;26.00;75.60
9881;DHT22;4979;51.014;6.678;2023-05-31T11:39:16;26.10;77.10
9881;DHT22;4979;51.014;6.678;2023-05-31T11:41:44;26.50;78.10
9881;DHT22;4979;51.014;6.678;2023-05-31T11:44:14;26.40;77.70
9881;DHT22;4979;51.014;6.678;2023-05-31T11:46:44;26.20;76.20
9881;DHT22;4979;51.014;6.678;2023-05-31T11:49:11;26.70;79.70
9881;DHT22;4979;51.014;6.678;2023-05-31T11:51:40;26.20;78.00
9881;DHT22;4979;51.014;6.678;2023-05-31T11:54:06;26.40;77.40
9881;DHT22;4979;51.014;6.678;2023-05-31T11:56:33;26.50;78.40
9881;DHT22;4979;51.014;6.678;2023-05-31T11:59:01;26.60;79.20
9881;DHT22;4979;51.014;6.678;2023-05-31T12:01:28;26.40;80.70
9881;DHT22;4979;51.014;6.678;2023-05-31T12:06:27;26.10;78.40
9881;DHT22;4979;51.014;6.678;2023-05-31T12:08:53;26.30;79.70
9881;DHT22;4979;51.014;6.678;2023-05-31T12:11:20;26.60;81.20
9881;DHT22;4979;51.014;6.678;2023-05-31T12:13:50;26.20;79.40
9881;DHT22;4979;51.014;6.678;2023-05-31T12:18:47;26.00;78.80
9881;DHT22;4979;51.014;6.678;2023-05-31T12:21:13;26.10;78.80
9881;DHT22;4979;51.014;6.678;2023-05-31T12:23:57;26.10;79.60
9881;DHT22;4979;51.014;6.678;2023-05-31T12:26:24;26.40;80.30
9881;DHT22;4979;51.014;6.678;2023-05-31T12:28:52;26.10;79.80
9881;DHT22;4979;51.014;6.678;2023-05-31T12:31:22;25.80;78.20
9881;DHT22;4979;51.014;6.678;2023-05-31T12:34:16;25.80;79.10
9881;DHT22;4979;51.014;6.678;2023-05-31T12:36:48;25.90;80.10
9881;DHT22;4979;51.014;6.678;2023-05-31T12:39:23;26.10;78.90
9881;DHT22;4979;51.014;6.678;2023-05-31T12:41:52;26.30;78.60
9881;DHT22;4979;51.014;6.678;2023-05-31T12:46:50;26.50;78.10
9881;DHT22;4979;51.014;6.678;2023-05-31T12:49:23;26.50;78.60
9881;DHT22;4979;51.014;6.678;2023-05-31T12:52:09;26.50;78.40
9881;DHT22;4979;51.014;6.678;2023-05-31T12:54:37;26.50;79.00
9881;DHT22;4979;51.014;6.678;2023-05-31T12:57:07;26.60;78.40
9881;DHT22;4979;51.014;6.678;2023-05-31T12:59:37;26.80;79.20
9881;DHT22;4979;51.014;6.678;2023-05-31T13:11:50;26.60;77.90
9881;DHT22;4979;51.014;6.678;2023-05-31T13:14:18;26.90;77.90
9881;DHT22;4979;51.014;6.678;2023-05-31T13:19:11;26.60;77.00
9881;DHT22;4979;51.014;6.678;2023-05-31T13:24:04;26.60;79.40
9881;DHT22;4979;51.014;6.678;2023-05-31T13:28:57;26.70;79.20
9881;DHT22;4979;51.014;6.678;2023-05-31T13:31:24;26.70;77.90
9881;DHT22;4979;51.014;6.678;2023-05-31T13:33:51;26.80;77.90
9881;DHT22;4979;51.014;6.678;2023-05-31T13:36:17;27.00;78.30
9881;DHT22;4979;51.014;6.678;2023-05-31T13:38:43;27.00;76.70
9881;DHT22;4979;51.014;6.678;2023-05-31T13:41:09;26.80;78.30
9881;DHT22;4979;51.014;6.678;2023-05-31T13:48:29;27.00;78.10
9881;DHT22;4979;51.014;6.678;2023-05-31T13:53:22;27.00;77.00
9881;DHT22;4979;51.014;6.678;2023-05-31T13:55:48;26.60;77.30
9881;DHT22;4979;51.014;6.678;2023-05-31T13:58:14;26.50;77.40
9881;DHT22;4979;51.014;6.678;2023-05-31T14:00:39;26.30;78.20
9881;DHT22;4979;51.014;6.678;2023-05-31T14:03:06;26.80;78.60
9881;DHT22;4979;51.014;6.678;2023-05-31T14:05:31;26.70;77.30
9881;DHT22;4979;51.014;6.678;2023-05-31T14:07:57;26.60;76.80
9881;DHT22;4979;51.014;6.678;2023-05-31T14:10:23;26.70;76.70
9881;DHT22;4979;51.014;6.678;2023-05-31T14:12:49;26.70;77.20
9881;DHT22;4979;51.014;6.678;2023-05-31T14:15:15;26.80;78.20
9881;DHT22;4979;51.014;6.678;2023-05-31T14:20:07;26.90;77.60
9881;DHT22;4979;51.014;6.678;2023-05-31T14:22:34;27.00;77.20
9881;DHT22;4979;51.014;6.678;2023-05-31T14:32:17;27.00;76.90
9881;DHT22;4979;51.014;6.678;2023-05-31T14:34:44;26.80;77.10
9881;DHT22;4979;51.014;6.678;2023-05-31T14:39:36;26.80;76.30
9881;DHT22;4979;51.014;6.678;2023-05-31T14:46:55;26.90;77.30
9881;DHT22;4979;51.014;6.678;2023-05-31T14:49:21;27.10;76.40
9881;DHT22;4979;51.014;6.678;2023-05-31T14:51:50;26.80;75.70
9881;DHT22;4979;51.014;6.678;2023-05-31T14:54:17;26.80;76.10
9881;DHT22;4979;51.014;6.678;2023-05-31T14:56:43;26.70;76.30
9881;DHT22;4979;51.014;6.678;2023-05-31T15:04:08;27.00;75.80
9881;DHT22;4979;51.014;6.678;2023-05-31T15:06:33;26.90;75.10
9881;DHT22;4979;51.014;6.678;2023-05-31T15:11:25;26.90;74.40
9881;DHT22;4979;51.014;6.678;2023-05-31T15:16:18;26.60;75.10
9881;DHT22;4979;51.014;6.678;2023-05-31T15:18:43;26.30;75.10
9881;DHT22;4979;51.014;6.678;2023-05-31T15:21:09;26.40;76.50
9881;DHT22;4979;51.014;6.678;2023-05-31T15:28:26;26.80;76.50
9881;DHT22;4979;51.014;6.678;2023-05-31T15:35:44;26.50;74.50
9881;DHT22;4979;51.014;6.678;2023-05-31T15:38:09;26.50;74.30
9881;DHT22;4979;51.014;6.678;2023-05-31T15:47:53;26.50;75.70
9881;DHT22;4979;51.014;6.678;2023-05-31T15:50:18;26.00;74.30
9881;DHT22;4979;51.014;6.678;2023-05-31T15:55:10;26.20;75.30
9881;DHT22;4979;51.014;6.678;2023-05-31T16:00:02;26.40;75.70
9881;DHT22;4979;51.014;6.678;2023-05-31T16:02:28;26.40;75.30
9881;DHT22;4979;51.014;6.678;2023-05-31T16:04:53;26.30;76.00
9881;DHT22;4979;51.014;6.678;2023-05-31T16:07:19;26.50;75.60
9881;DHT22;4979;51.014;6.678;2023-05-31T16:09:44;26.30;74.10
9881;DHT22;4979;51.014;6.678;2023-05-31T16:24:20;26.20;76.10
9881;DHT22;4979;51.014;6.678;2023-05-31T16:26:46;26.00;77.50
9881;DHT22;4979;51.014;6.678;2023-05-31T16:29:16;25.90;76.80
9881;DHT22;4979;51.014;6.678;2023-05-31T16:34:07;25.90;77.00
9881;DHT22;4979;51.014;6.678;2023-05-31T16:38:59;25.40;77.10
9881;DHT22;4979;51.014;6.678;2023-05-31T16:41:29;25.70;77.20
9881;DHT22;4979;51.014;6.678;2023-05-31T16:43:55;25.80;77.90
9881;DHT22;4979;51.014;6.678;2023-05-31T16:46:21;25.50;77.70
9881;DHT22;4979;51.014;6.678;2023-05-31T16:53:38;25.80;78.90
9881;DHT22;4979;51.014;6.678;2023-05-31T17:00:56;26.00;80.30
9881;DHT22;4979;51.014;6.678;2023-05-31T17:03:21;26.10;80.00
9881;DHT22;4979;51.014;6.678;2023-05-31T17:08:13;25.90;80.10
9881;DHT22;4979;51.014;6.678;2023-05-31T17:15:32;25.80;80.30
9881;DHT22;4979;51.014;6.678;2023-05-31T17:17:58;25.80;80.60
9881;DHT22;4979;51.014;6.678;2023-05-31T17:25:15;25.50;80.30
9881;DHT22;4979;51.014;6.678;2023-05-31T17:35:01;25.80;83.20
9881;DHT22;4979;51.014;6.678;2023-05-31T17:37:28;25.80;82.50
9881;DHT22;4979;51.014;6.678;2023-05-31T17:39:56;25.70;82.70
9881;DHT22;4979;51.014;6.678;2023-05-31T17:47:15;25.80;83.20
9881;DHT22;4979;51.014;6.678;2023-05-31T17:49:41;25.90;83.10
9881;DHT22;4979;51.014;6.678;2023-05-31T17:52:07;26.00;83.30
9881;DHT22;4979;51.014;6.678;2023-05-31T17:54:32;25.70;83.50
9881;DHT22;4979;51.014;6.678;2023-05-31T17:59:24;25.60;84.70
9881;DHT22;4979;51.014;6.678;2023-05-31T18:01:50;25.80;85.80
9881;DHT22;4979;51.014;6.678;2023-05-31T18:09:07;25.70;85.70
9881;DHT22;4979;51.014;6.678;2023-05-31T18:11:33;25.90;85.10
9881;DHT22;4979;51.014;6.678;2023-05-31T18:13:59;25.70;85.30
9881;DHT22;4979;51.014;6.678;2023-05-31T18:21:17;25.30;85.30
9881;DHT22;4979;51.014;6.678;2023-05-31T18:31:03;25.10;87.10
9881;DHT22;4979;51.014;6.678;2023-05-31T18:33:29;25.30;86.30
9881;DHT22;4979;51.014;6.678;2023-05-31T18:35:55;25.50;86.20
9881;DHT22;4979;51.014;6.678;2023-05-31T18:43:13;25.60;85.70
9881;DHT22;4979;51.014;6.678;2023-05-31T18:48:05;25.70;85.40
9881;DHT22;4979;51.014;6.678;2023-05-31T18:55:24;24.60;87.80
9881;DHT22;4979;51.014;6.678;2023-05-31T19:02:45;23.80;90.00
9881;DHT22;4979;51.014;6.678;2023-05-31T19:05:13;23.60;90.00
9881;DHT22;4979;51.014;6.678;2023-05-31T19:07:38;23.70;90.20
9881;DHT22;4979;51.014;6.678;2023-05-31T19:10:04;23.60;90.70
9881;DHT22;4979;51.014;6.678;2023-05-31T19:12:30;23.40;90.80
9881;DHT22;4979;51.014;6.678;2023-05-31T19:14:56;23.10;90.90
9881;DHT22;4979;51.014;6.678;2023-05-31T19:17:21;23.20;91.30
9881;DHT22;4979;51.014;6.678;2023-05-31T19:27:05;22.80;92.60
9881;DHT22;4979;51.014;6.678;2023-05-31T19:34:22;22.50;93.60
9881;DHT22;4979;51.014;6.678;2023-05-31T19:36:48;22.60;94.40
9881;DHT22;4979;51.014;6.678;2023-05-31T19:39:15;22.30;94.50
9881;DHT22;4979;51.014;6.678;2023-05-31T19:46:34;22.10;96.20
9881;DHT22;4979;51.014;6.678;2023-05-31T19:48:59;22.10;96.50
9881;DHT22;4979;51.014;6.678;2023-05-31T19:56:17;21.90;98.60
9881;DHT22;4979;51.014;6.678;2023-05-31T20:10:56;21.40;99.90
9881;DHT22;4979;51.014;6.678;2023-05-31T20:13:21;21.70;99.90
9881;DHT22;4979;51.014;6.678;2023-05-31T20:25:31;21.50;99.90
9881;DHT22;4979;51.014;6.678;2023-05-31T20:27:57;21.40;99.90
9881;DHT22;4979;51.014;6.678;2023-05-31T20:37:43;21.30;99.90
9881;DHT22;4979;51.014;6.678;2023-05-31T20:52:21;20.50;99.90
9881;DHT22;4979;51.014;6.678;2023-05-31T21:02:04;20.30;99.90
9881;DHT22;4979;51.014;6.678;2023-05-31T21:04:30;20.20;99.90
9881;DHT22;4979;51.014;6.678;2023-05-31T21:11:48;19.80;99.90
9881;DHT22;4979;51.014;6.678;2023-05-31T21:14:15;20.00;99.90
9881;DHT22;4979;51.014;6.678;2023-05-31T21:21:33;19.70;99.90
9881;DHT22;4979;51.014;6.678;2023-05-31T21:26:25;20.00;99.90
9881;DHT22;4979;51.014;6.678;2023-05-31T21:28:51;19.70;99.90
9881;DHT22;4979;51.014;6.678;2023-05-31T21:31:17;19.90;99.90
9881;DHT22;4979;51.014;6.678;2023-05-31T21:33:42;19.60;99.90
9881;DHT22;4979;51.014;6.678;2023-05-31T21:38:34;19.50;99.90
9881;DHT22;4979;51.014;6.678;2023-05-31T21:40:59;19.60;99.90